sensor_id;sensor_type;location;lat;lon;timestamp;temperature;humidity
20057;DHT22;10189;49.546;7.906;2023-04-24T00:00:16;9.30;99.90
20057;DHT22;10189;49.546;7.906;2023-04-24T00:02:44;9.30;99.90
20057;DHT22;10189;49.546;7.906;2023-04-24T00:05:16;9.30;99.90
20057;DHT22;10189;49.546;7.906;2023-04-24T00:07:44;9.30;99.90
20057;DHT22;10189;49.546;7.906;2023-04-24T00:10:11;9.40;99.90
20057;DHT22;10189;49.546;7.906;2023-04-24T00:12:37;9.40;99.50
20057;DHT22;10189;49.546;7.906;2023-04-24T00:15:04;9.40;99.80
20057;DHT22;10189;49.546;7.906;2023-04-24T00:17:30;9.40;99.90
20057;DHT22;10189;49.546;7.906;2023-04-24T00:19:57;9.40;99.70
20057;DHT22;10189;49.546;7.906;2023-04-24T00:22:28;9.30;99.90
20057;DHT22;10189;49.546;7.906;2023-04-24T00:24:54;9.30;99.70
20057;DHT22;10189;49.546;7.906;2023-04-24T00:27:20;9.40;99.50
20057;DHT22;10189;49.546;7.906;2023-04-24T00:29:48;9.40;99.20
20057;DHT22;10189;49.546;7.906;2023-04-24T00:32:14;9.40;98.70
20057;DHT22;10189;49.546;7.906;2023-04-24T00:34:40;9.50;97.80
20057;DHT22;10189;49.546;7.906;2023-04-24T00:37:07;9.50;97.40
20057;DHT22;10189;49.546;7.906;2023-04-24T00:39:33;9.50;97.70
20057;DHT22;10189;49.546;7.906;2023-04-24T00:41:59;9.50;97.90
20057;DHT22;10189;49.546;7.906;2023-04-24T00:44:25;9.50;98.10
20057;DHT22;10189;49.546;7.906;2023-04-24T00:46:51;9.50;97.50
20057;DHT22;10189;49.546;7.906;2023-04-24T00:49:21;9.50;97.10
20057;DHT22;10189;49.546;7.906;2023-04-24T00:51:47;9.50;96.90
20057;DHT22;10189;49.546;7.906;2023-04-24T00:54:15;9.50;97.20
20057;DHT22;10189;49.546;7.906;2023-04-24T00:56:42;9.60;96.10
20057;DHT22;10189;49.546;7.906;2023-04-24T00:59:11;9.60;96.00
20057;DHT22;10189;49.546;7.906;2023-04-24T01:01:38;9.70;94.80
20057;DHT22;10189;49.546;7.906;2023-04-24T01:04:09;9.70;94.80
20057;DHT22;10189;49.546;7.906;2023-04-24T01:06:39;9.60;95.00
20057;DHT22;10189;49.546;7.906;2023-04-24T01:09:05;9.60;95.00
20057;DHT22;10189;49.546;7.906;2023-04-24T01:11:36;9.60;95.10
20057;DHT22;10189;49.546;7.906;2023-04-24T01:14:04;9.60;94.90
20057;DHT22;10189;49.546;7.906;2023-04-24T01:16:30;9.60;95.30
20057;DHT22;10189;49.546;7.906;2023-04-24T01:18:56;9.60;95.20
20057;DHT22;10189;49.546;7.906;2023-04-24T01:21:23;9.60;94.90
20057;DHT22;10189;49.546;7.906;2023-04-24T01:23:53;9.60;95.40
20057;DHT22;10189;49.546;7.906;2023-04-24T01:26:21;9.60;95.60
20057;DHT22;10189;49.546;7.906;2023-04-24T01:28:48;9.70;96.10
20057;DHT22;10189;49.546;7.906;2023-04-24T01:31:15;9.60;96.40
20057;DHT22;10189;49.546;7.906;2023-04-24T01:33:41;9.60;96.30
20057;DHT22;10189;49.546;7.906;2023-04-24T01:36:10;9.50;96.90
20057;DHT22;10189;49.546;7.906;2023-04-24T01:38:37;9.50;97.30
20057;DHT22;10189;49.546;7.906;2023-04-24T01:41:03;9.40;97.60
20057;DHT22;10189;49.546;7.906;2023-04-24T01:43:29;9.40;98.20
20057;DHT22;10189;49.546;7.906;2023-04-24T01:45:57;9.30;98.70
20057;DHT22;10189;49.546;7.906;2023-04-24T01:48:23;9.30;99.10
20057;DHT22;10189;49.546;7.906;2023-04-24T01:50:49;9.30;98.80
20057;DHT22;10189;49.546;7.906;2023-04-24T01:53:15;9.20;97.70
20057;DHT22;10189;49.546;7.906;2023-04-24T01:55:41;9.20;97.70
20057;DHT22;10189;49.546;7.906;2023-04-24T01:58:07;9.20;97.80
20057;DHT22;10189;49.546;7.906;2023-04-24T02:00:34;9.10;98.30
20057;DHT22;10189;49.546;7.906;2023-04-24T02:02:59;9.00;99.60
20057;DHT22;10189;49.546;7.906;2023-04-24T02:05:27;8.90;99.60
20057;DHT22;10189;49.546;7.906;2023-04-24T02:07:54;8.80;99.90
20057;DHT22;10189;49.546;7.906;2023-04-24T02:10:20;8.70;99.90
20057;DHT22;10189;49.546;7.906;2023-04-24T02:12:46;8.60;99.90
20057;DHT22;10189;49.546;7.906;2023-04-24T02:15:12;8.50;99.90
20057;DHT22;10189;49.546;7.906;2023-04-24T02:17:38;8.40;99.90
20057;DHT22;10189;49.546;7.906;2023-04-24T02:20:06;8.30;99.90
20057;DHT22;10189;49.546;7.906;2023-04-24T02:22:32;8.20;99.90
20057;DHT22;10189;49.546;7.906;2023-04-24T02:25:01;8.20;99.90
20057;DHT22;10189;49.546;7.906;2023-04-24T02:27:27;8.10;99.90
20057;DHT22;10189;49.546;7.906;2023-04-24T02:29:52;8.00;99.90
20057;DHT22;10189;49.546;7.906;2023-04-24T02:32:18;7.90;99.90
20057;DHT22;10189;49.546;7.906;2023-04-24T02:34:44;7.90;99.90
20057;DHT22;10189;49.546;7.906;2023-04-24T02:37:11;7.90;99.90
20057;DHT22;10189;49.546;7.906;2023-04-24T02:39:37;7.90;99.90
20057;DHT22;10189;49.546;7.906;2023-04-24T02:42:03;7.80;99.90
20057;DHT22;10189;49.546;7.906;2023-04-24T02:44:29;7.80;99.90
20057;DHT22;10189;49.546;7.906;2023-04-24T02:46:55;7.80;99.90
20057;DHT22;10189;49.546;7.906;2023-04-24T02:49:22;7.70;99.90
20057;DHT22;10189;49.546;7.906;2023-04-24T02:51:48;7.70;99.90
20057;DHT22;10189;49.546;7.906;2023-04-24T02:54:14;7.70;99.90
20057;DHT22;10189;49.546;7.906;2023-04-24T02:56:40;7.70;99.90
20057;DHT22;10189;49.546;7.906;2023-04-24T02:59:07;7.60;99.90
20057;DHT22;10189;49.546;7.906;2023-04-24T03:01:33;7.60;99.90
20057;DHT22;10189;49.546;7.906;2023-04-24T03:03:59;7.50;99.90
20057;DHT22;10189;49.546;7.906;2023-04-24T03:06:25;7.60;99.90
20057;DHT22;10189;49.546;7.906;2023-04-24T03:08:52;7.50;99.90
20057;DHT22;10189;49.546;7.906;2023-04-24T03:11:18;7.60;99.90
20057;DHT22;10189;49.546;7.906;2023-04-24T03:13:45;7.50;99.90
20057;DHT22;10189;49.546;7.906;2023-04-24T03:16:11;7.40;99.90
20057;DHT22;10189;49.546;7.906;2023-04-24T03:18:36;7.40;99.90
20057;DHT22;10189;49.546;7.906;2023-04-24T03:21:04;7.40;99.90
20057;DHT22;10189;49.546;7.906;2023-04-24T03:23:31;7.40;99.90
20057;DHT22;10189;49.546;7.906;2023-04-24T03:25:57;7.30;99.90
20057;DHT22;10189;49.546;7.906;2023-04-24T03:28:25;7.20;99.90
20057;DHT22;10189;49.546;7.906;2023-04-24T03:30:58;7.10;99.90
20057;DHT22;10189;49.546;7.906;2023-04-24T03:33:28;7.00;99.90
20057;DHT22;10189;49.546;7.906;2023-04-24T03:36:01;6.90;99.90
20057;DHT22;10189;49.546;7.906;2023-04-24T03:38:34;6.80;99.90
20057;DHT22;10189;49.546;7.906;2023-04-24T03:41:15;6.70;99.90
20057;DHT22;10189;49.546;7.906;2023-04-24T03:43:48;6.60;99.90
20057;DHT22;10189;49.546;7.906;2023-04-24T03:46:15;6.50;99.90
20057;DHT22;10189;49.546;7.906;2023-04-24T03:48:46;6.40;99.90
20057;DHT22;10189;49.546;7.906;2023-04-24T03:51:14;6.40;99.90
20057;DHT22;10189;49.546;7.906;2023-04-24T03:53:43;6.30;99.90
20057;DHT22;10189;49.546;7.906;2023-04-24T03:56:11;6.30;99.90
20057;DHT22;10189;49.546;7.906;2023-04-24T03:58:37;6.20;99.90
20057;DHT22;10189;49.546;7.906;2023-04-24T04:01:04;6.20;99.90
20057;DHT22;10189;49.546;7.906;2023-04-24T04:03:58;6.20;99.90
20057;DHT22;10189;49.546;7.906;2023-04-24T04:06:26;6.10;99.90
20057;DHT22;10189;49.546;7.906;2023-04-24T04:08:54;6.00;99.90
20057;DHT22;10189;49.546;7.906;2023-04-24T04:11:20;6.00;99.90
20057;DHT22;10189;49.546;7.906;2023-04-24T04:13:46;6.00;99.90
20057;DHT22;10189;49.546;7.906;2023-04-24T04:16:15;6.00;99.90
20057;DHT22;10189;49.546;7.906;2023-04-24T04:18:46;6.10;99.90
20057;DHT22;10189;49.546;7.906;2023-04-24T04:21:12;6.10;99.90
20057;DHT22;10189;49.546;7.906;2023-04-24T04:23:38;6.10;99.90
20057;DHT22;10189;49.546;7.906;2023-04-24T04:26:28;6.10;99.90
20057;DHT22;10189;49.546;7.906;2023-04-24T04:29:04;6.20;99.90
20057;DHT22;10189;49.546;7.906;2023-04-24T04:31:33;6.20;99.90
20057;DHT22;10189;49.546;7.906;2023-04-24T04:34:05;6.30;99.90
20057;DHT22;10189;49.546;7.906;2023-04-24T04:36:33;6.30;99.90
20057;DHT22;10189;49.546;7.906;2023-04-24T04:39:08;6.30;99.90
20057;DHT22;10189;49.546;7.906;2023-04-24T04:42:00;6.40;99.90
20057;DHT22;10189;49.546;7.906;2023-04-24T04:44:32;6.40;99.90
20057;DHT22;10189;49.546;7.906;2023-04-24T04:46:59;6.40;99.90
20057;DHT22;10189;49.546;7.906;2023-04-24T04:49:29;6.40;99.90
20057;DHT22;10189;49.546;7.906;2023-04-24T04:51:55;6.40;99.90
20057;DHT22;10189;49.546;7.906;2023-04-24T04:54:24;6.40;99.90
20057;DHT22;10189;49.546;7.906;2023-04-24T04:56:50;6.40;99.90
20057;DHT22;10189;49.546;7.906;2023-04-24T04:59:16;6.50;99.90
20057;DHT22;10189;49.546;7.906;2023-04-24T05:01:42;6.50;99.90
20057;DHT22;10189;49.546;7.906;2023-04-24T05:04:10;6.70;99.90
20057;DHT22;10189;49.546;7.906;2023-04-24T05:06:37;6.80;99.90
20057;DHT22;10189;49.546;7.906;2023-04-24T05:09:04;6.90;99.90
20057;DHT22;10189;49.546;7.906;2023-04-24T05:11:46;6.90;99.90
20057;DHT22;10189;49.546;7.906;2023-04-24T05:14:12;6.90;99.90
20057;DHT22;10189;49.546;7.906;2023-04-24T05:16:39;6.90;99.90
20057;DHT22;10189;49.546;7.906;2023-04-24T05:19:07;6.90;99.90
20057;DHT22;10189;49.546;7.906;2023-04-24T05:21:37;7.00;99.90
20057;DHT22;10189;49.546;7.906;2023-04-24T05:24:05;7.00;99.90
20057;DHT22;10189;49.546;7.906;2023-04-24T05:26:45;7.00;99.90
20057;DHT22;10189;49.546;7.906;2023-04-24T05:29:13;7.00;99.90
20057;DHT22;10189;49.546;7.906;2023-04-24T05:31:38;6.90;99.90
20057;DHT22;10189;49.546;7.906;2023-04-24T05:34:05;6.90;99.90
20057;DHT22;10189;49.546;7.906;2023-04-24T05:36:34;6.90;99.90
20057;DHT22;10189;49.546;7.906;2023-04-24T05:39:00;7.00;99.90
20057;DHT22;10189;49.546;7.906;2023-04-24T05:41:26;7.10;99.90
20057;DHT22;10189;49.546;7.906;2023-04-24T05:43:52;7.30;99.90
20057;DHT22;10189;49.546;7.906;2023-04-24T05:46:17;7.30;99.30
20057;DHT22;10189;49.546;7.906;2023-04-24T05:48:44;7.30;98.30
20057;DHT22;10189;49.546;7.906;2023-04-24T05:51:10;7.40;97.40
20057;DHT22;10189;49.546;7.906;2023-04-24T05:53:36;7.50;98.00
20057;DHT22;10189;49.546;7.906;2023-04-24T05:56:01;7.50;96.70
20057;DHT22;10189;49.546;7.906;2023-04-24T05:58:28;7.40;96.20
20057;DHT22;10189;49.546;7.906;2023-04-24T06:00:54;7.30;96.90
20057;DHT22;10189;49.546;7.906;2023-04-24T06:03:20;7.30;96.70
20057;DHT22;10189;49.546;7.906;2023-04-24T06:05:50;7.20;97.20
20057;DHT22;10189;49.546;7.906;2023-04-24T06:08:16;7.20;97.40
20057;DHT22;10189;49.546;7.906;2023-04-24T06:10:44;7.20;97.80
20057;DHT22;10189;49.546;7.906;2023-04-24T06:13:10;7.20;99.10
20057;DHT22;10189;49.546;7.906;2023-04-24T06:15:41;7.20;98.80
20057;DHT22;10189;49.546;7.906;2023-04-24T06:18:11;7.40;99.00
20057;DHT22;10189;49.546;7.906;2023-04-24T06:20:39;7.60;98.20
20057;DHT22;10189;49.546;7.906;2023-04-24T06:23:08;7.90;96.80
20057;DHT22;10189;49.546;7.906;2023-04-24T06:25:34;8.10;93.50
20057;DHT22;10189;49.546;7.906;2023-04-24T06:28:00;8.30;94.20
20057;DHT22;10189;49.546;7.906;2023-04-24T06:30:29;8.50;93.70
20057;DHT22;10189;49.546;7.906;2023-04-24T06:32:55;8.80;92.50
20057;DHT22;10189;49.546;7.906;2023-04-24T06:35:20;9.30;92.90
20057;DHT22;10189;49.546;7.906;2023-04-24T06:37:46;9.70;88.20
20057;DHT22;10189;49.546;7.906;2023-04-24T06:40:12;10.20;86.00
20057;DHT22;10189;49.546;7.906;2023-04-24T06:42:38;10.40;85.40
20057;DHT22;10189;49.546;7.906;2023-04-24T06:45:07;10.20;84.10
20057;DHT22;10189;49.546;7.906;2023-04-24T06:47:33;10.10;85.30
20057;DHT22;10189;49.546;7.906;2023-04-24T06:49:59;9.60;84.70
20057;DHT22;10189;49.546;7.906;2023-04-24T06:52:25;9.30;85.50
20057;DHT22;10189;49.546;7.906;2023-04-24T06:54:51;9.20;86.30
20057;DHT22;10189;49.546;7.906;2023-04-24T06:57:18;9.00;86.50
20057;DHT22;10189;49.546;7.906;2023-04-24T06:59:45;9.00;86.40
20057;DHT22;10189;49.546;7.906;2023-04-24T07:02:10;8.90;86.20
20057;DHT22;10189;49.546;7.906;2023-04-24T07:04:36;8.90;83.20
20057;DHT22;10189;49.546;7.906;2023-04-24T07:07:02;8.90;83.90
20057;DHT22;10189;49.546;7.906;2023-04-24T07:09:28;8.90;84.50
20057;DHT22;10189;49.546;7.906;2023-04-24T07:11:54;8.60;82.30
20057;DHT22;10189;49.546;7.906;2023-04-24T07:14:21;8.60;84.00
20057;DHT22;10189;49.546;7.906;2023-04-24T07:16:48;8.60;83.60
20057;DHT22;10189;49.546;7.906;2023-04-24T07:19:14;8.60;82.50
20057;DHT22;10189;49.546;7.906;2023-04-24T07:21:40;8.60;81.90
20057;DHT22;10189;49.546;7.906;2023-04-24T07:24:06;8.70;81.00
20057;DHT22;10189;49.546;7.906;2023-04-24T07:26:37;8.70;83.20
20057;DHT22;10189;49.546;7.906;2023-04-24T07:29:04;8.60;80.20
20057;DHT22;10189;49.546;7.906;2023-04-24T07:31:30;8.50;81.70
20057;DHT22;10189;49.546;7.906;2023-04-24T07:33:56;8.30;81.00
20057;DHT22;10189;49.546;7.906;2023-04-24T07:36:23;8.30;80.80
20057;DHT22;10189;49.546;7.906;2023-04-24T07:38:51;8.10;80.90
20057;DHT22;10189;49.546;7.906;2023-04-24T07:41:18;8.00;80.00
20057;DHT22;10189;49.546;7.906;2023-04-24T07:43:44;7.90;80.70
20057;DHT22;10189;49.546;7.906;2023-04-24T07:46:10;7.70;82.20
20057;DHT22;10189;49.546;7.906;2023-04-24T07:48:36;7.60;82.40
20057;DHT22;10189;49.546;7.906;2023-04-24T07:51:02;7.60;83.50
20057;DHT22;10189;49.546;7.906;2023-04-24T07:53:28;7.70;83.40
20057;DHT22;10189;49.546;7.906;2023-04-24T07:55:55;7.80;82.90
20057;DHT22;10189;49.546;7.906;2023-04-24T07:58:21;8.00;83.10
20057;DHT22;10189;49.546;7.906;2023-04-24T08:00:47;8.20;82.80
20057;DHT22;10189;49.546;7.906;2023-04-24T08:03:13;8.40;82.20
20057;DHT22;10189;49.546;7.906;2023-04-24T08:05:39;8.70;81.30
20057;DHT22;10189;49.546;7.906;2023-04-24T08:08:07;8.80;79.90
20057;DHT22;10189;49.546;7.906;2023-04-24T08:10:33;8.80;79.30
20057;DHT22;10189;49.546;7.906;2023-04-24T08:12:59;8.80;79.40
20057;DHT22;10189;49.546;7.906;2023-04-24T08:15:27;8.60;78.60
20057;DHT22;10189;49.546;7.906;2023-04-24T08:17:53;8.60;79.80
20057;DHT22;10189;49.546;7.906;2023-04-24T08:20:18;8.50;80.10
20057;DHT22;10189;49.546;7.906;2023-04-24T08:22:44;8.50;80.50
20057;DHT22;10189;49.546;7.906;2023-04-24T08:25:12;8.60;78.90
20057;DHT22;10189;49.546;7.906;2023-04-24T08:27:38;8.80;80.90
20057;DHT22;10189;49.546;7.906;2023-04-24T08:30:05;9.20;78.70
20057;DHT22;10189;49.546;7.906;2023-04-24T08:32:32;9.40;78.90
20057;DHT22;10189;49.546;7.906;2023-04-24T08:34:58;9.60;75.70
20057;DHT22;10189;49.546;7.906;2023-04-24T08:37:26;9.50;75.30
20057;DHT22;10189;49.546;7.906;2023-04-24T08:39:53;9.10;76.80
20057;DHT22;10189;49.546;7.906;2023-04-24T08:42:19;9.00;77.40
20057;DHT22;10189;49.546;7.906;2023-04-24T08:44:49;9.10;79.50
20057;DHT22;10189;49.546;7.906;2023-04-24T08:47:15;9.30;76.80
20057;DHT22;10189;49.546;7.906;2023-04-24T08:49:42;9.40;77.20
20057;DHT22;10189;49.546;7.906;2023-04-24T08:52:09;9.30;78.60
20057;DHT22;10189;49.546;7.906;2023-04-24T08:54:39;9.20;77.00
20057;DHT22;10189;49.546;7.906;2023-04-24T08:57:09;9.20;78.70
20057;DHT22;10189;49.546;7.906;2023-04-24T08:59:38;9.20;78.50
20057;DHT22;10189;49.546;7.906;2023-04-24T09:02:04;9.30;79.10
20057;DHT22;10189;49.546;7.906;2023-04-24T09:04:33;9.30;79.40
20057;DHT22;10189;49.546;7.906;2023-04-24T09:07:00;9.30;79.40
20057;DHT22;10189;49.546;7.906;2023-04-24T09:09:29;9.30;79.00
20057;DHT22;10189;49.546;7.906;2023-04-24T09:11:58;9.20;81.40
20057;DHT22;10189;49.546;7.906;2023-04-24T09:14:24;9.10;83.50
20057;DHT22;10189;49.546;7.906;2023-04-24T09:16:51;8.70;86.90
20057;DHT22;10189;49.546;7.906;2023-04-24T09:19:17;8.10;89.00
20057;DHT22;10189;49.546;7.906;2023-04-24T09:21:46;7.90;90.70
20057;DHT22;10189;49.546;7.906;2023-04-24T09:24:17;7.70;92.50
20057;DHT22;10189;49.546;7.906;2023-04-24T09:26:45;7.70;92.40
20057;DHT22;10189;49.546;7.906;2023-04-24T09:29:16;7.80;93.40
20057;DHT22;10189;49.546;7.906;2023-04-24T09:31:43;7.80;91.80
20057;DHT22;10189;49.546;7.906;2023-04-24T09:34:10;7.90;90.40
20057;DHT22;10189;49.546;7.906;2023-04-24T09:36:42;8.10;91.10
20057;DHT22;10189;49.546;7.906;2023-04-24T09:39:13;8.20;89.70
20057;DHT22;10189;49.546;7.906;2023-04-24T09:44:15;8.60;86.80
20057;DHT22;10189;49.546;7.906;2023-04-24T09:46:44;8.80;84.50
20057;DHT22;10189;49.546;7.906;2023-04-24T09:49:15;9.20;87.10
20057;DHT22;10189;49.546;7.906;2023-04-24T09:51:43;9.30;82.90
20057;DHT22;10189;49.546;7.906;2023-04-24T09:54:18;9.10;82.40
20057;DHT22;10189;49.546;7.906;2023-04-24T09:56:50;9.00;83.20
20057;DHT22;10189;49.546;7.906;2023-04-24T09:59:18;8.70;84.30
20057;DHT22;10189;49.546;7.906;2023-04-24T10:01:44;8.60;83.80
20057;DHT22;10189;49.546;7.906;2023-04-24T10:04:19;8.60;85.20
20057;DHT22;10189;49.546;7.906;2023-04-24T10:06:51;8.60;84.80
20057;DHT22;10189;49.546;7.906;2023-04-24T10:09:20;8.80;85.90
20057;DHT22;10189;49.546;7.906;2023-04-24T10:11:49;9.20;84.30
20057;DHT22;10189;49.546;7.906;2023-04-24T10:14:18;9.40;82.30
20057;DHT22;10189;49.546;7.906;2023-04-24T10:16:48;9.70;81.70
20057;DHT22;10189;49.546;7.906;2023-04-24T10:19:16;9.80;80.70
20057;DHT22;10189;49.546;7.906;2023-04-24T10:21:45;10.10;79.40
20057;DHT22;10189;49.546;7.906;2023-04-24T10:24:15;10.30;80.10
20057;DHT22;10189;49.546;7.906;2023-04-24T10:26:43;10.40;78.90
20057;DHT22;10189;49.546;7.906;2023-04-24T10:29:12;10.40;78.40
20057;DHT22;10189;49.546;7.906;2023-04-24T10:31:40;10.40;76.90
20057;DHT22;10189;49.546;7.906;2023-04-24T10:34:08;10.30;77.90
20057;DHT22;10189;49.546;7.906;2023-04-24T10:36:38;10.30;78.10
20057;DHT22;10189;49.546;7.906;2023-04-24T10:39:10;10.20;79.40
20057;DHT22;10189;49.546;7.906;2023-04-24T10:41:38;10.10;76.90
20057;DHT22;10189;49.546;7.906;2023-04-24T10:44:07;10.00;77.60
20057;DHT22;10189;49.546;7.906;2023-04-24T10:46:38;9.80;78.20
20057;DHT22;10189;49.546;7.906;2023-04-24T10:49:08;9.70;78.40
20057;DHT22;10189;49.546;7.906;2023-04-24T10:51:53;9.70;79.30
20057;DHT22;10189;49.546;7.906;2023-04-24T10:55:03;9.70;77.50
20057;DHT22;10189;49.546;7.906;2023-04-24T10:57:28;9.90;80.00
20057;DHT22;10189;49.546;7.906;2023-04-24T11:00:15;10.60;78.90
20057;DHT22;10189;49.546;7.906;2023-04-24T11:02:46;10.90;75.00
20057;DHT22;10189;49.546;7.906;2023-04-24T11:05:19;10.60;75.40
20057;DHT22;10189;49.546;7.906;2023-04-24T11:08:15;10.30;74.60
20057;DHT22;10189;49.546;7.906;2023-04-24T11:10:54;9.80;76.60
20057;DHT22;10189;49.546;7.906;2023-04-24T11:13:25;9.50;77.10
20057;DHT22;10189;49.546;7.906;2023-04-24T11:16:15;9.20;78.30
20057;DHT22;10189;49.546;7.906;2023-04-24T11:22:03;9.10;80.40
20057;DHT22;10189;49.546;7.906;2023-04-24T11:24:49;9.20;79.80
20057;DHT22;10189;49.546;7.906;2023-04-24T11:27:24;9.60;79.60
20057;DHT22;10189;49.546;7.906;2023-04-24T11:32:34;10.30;77.40
20057;DHT22;10189;49.546;7.906;2023-04-24T11:35:12;10.40;75.60
20057;DHT22;10189;49.546;7.906;2023-04-24T11:37:44;10.60;75.30
20057;DHT22;10189;49.546;7.906;2023-04-24T11:40:14;10.70;75.00
20057;DHT22;10189;49.546;7.906;2023-04-24T11:42:45;10.80;75.50
20057;DHT22;10189;49.546;7.906;2023-04-24T11:45:21;11.00;73.80
20057;DHT22;10189;49.546;7.906;2023-04-24T11:47:49;11.00;71.70
20057;DHT22;10189;49.546;7.906;2023-04-24T11:50:16;11.20;73.50
20057;DHT22;10189;49.546;7.906;2023-04-24T11:52:45;11.50;73.60
20057;DHT22;10189;49.546;7.906;2023-04-24T11:57:50;11.90;70.30
20057;DHT22;10189;49.546;7.906;2023-04-24T12:00:22;11.90;68.10
20057;DHT22;10189;49.546;7.906;2023-04-24T12:03:09;12.30;69.80
20057;DHT22;10189;49.546;7.906;2023-04-24T12:05:37;12.30;69.20
20057;DHT22;10189;49.546;7.906;2023-04-24T12:08:04;12.30;67.10
20057;DHT22;10189;49.546;7.906;2023-04-24T12:10:32;12.00;69.50
20057;DHT22;10189;49.546;7.906;2023-04-24T12:12:59;11.90;67.50
20057;DHT22;10189;49.546;7.906;2023-04-24T12:15:26;11.50;67.50
20057;DHT22;10189;49.546;7.906;2023-04-24T12:17:53;11.40;69.00
20057;DHT22;10189;49.546;7.906;2023-04-24T12:20:29;11.50;70.60
20057;DHT22;10189;49.546;7.906;2023-04-24T12:22:57;11.70;70.40
20057;DHT22;10189;49.546;7.906;2023-04-24T12:25:26;11.60;69.20
20057;DHT22;10189;49.546;7.906;2023-04-24T12:28:34;11.40;69.00
20057;DHT22;10189;49.546;7.906;2023-04-24T12:30:47;11.10;71.90
20057;DHT22;10189;49.546;7.906;2023-04-24T12:33:21;11.10;74.00
20057;DHT22;10189;49.546;7.906;2023-04-24T12:35:48;11.40;73.30
20057;DHT22;10189;49.546;7.906;2023-04-24T12:38:22;11.80;72.60
20057;DHT22;10189;49.546;7.906;2023-04-24T12:41:11;11.80;70.70
20057;DHT22;10189;49.546;7.906;2023-04-24T12:43:38;11.90;70.00
20057;DHT22;10189;49.546;7.906;2023-04-24T12:46:15;12.20;69.20
20057;DHT22;10189;49.546;7.906;2023-04-24T12:48:41;12.30;68.60
20057;DHT22;10189;49.546;7.906;2023-04-24T12:51:07;12.40;68.20
20057;DHT22;10189;49.546;7.906;2023-04-24T12:53:33;12.50;66.20
20057;DHT22;10189;49.546;7.906;2023-04-24T12:55:58;12.00;66.40
20057;DHT22;10189;49.546;7.906;2023-04-24T12:58:24;11.90;67.10
20057;DHT22;10189;49.546;7.906;2023-04-24T13:00:50;12.10;67.10
20057;DHT22;10189;49.546;7.906;2023-04-24T13:03:18;12.10;67.50
20057;DHT22;10189;49.546;7.906;2023-04-24T13:05:44;11.80;66.80
20057;DHT22;10189;49.546;7.906;2023-04-24T13:08:10;11.60;66.50
20057;DHT22;10189;49.546;7.906;2023-04-24T13:10:36;11.40;67.00
20057;DHT22;10189;49.546;7.906;2023-04-24T13:13:02;11.40;66.70
20057;DHT22;10189;49.546;7.906;2023-04-24T13:15:29;11.40;66.60
20057;DHT22;10189;49.546;7.906;2023-04-24T13:17:55;11.70;66.80
20057;DHT22;10189;49.546;7.906;2023-04-24T13:20:20;11.60;66.00
20057;DHT22;10189;49.546;7.906;2023-04-24T13:22:46;11.40;66.50
20057;DHT22;10189;49.546;7.906;2023-04-24T13:25:12;11.10;67.60
20057;DHT22;10189;49.546;7.906;2023-04-24T13:27:38;10.90;69.60
20057;DHT22;10189;49.546;7.906;2023-04-24T13:30:05;10.70;68.70
20057;DHT22;10189;49.546;7.906;2023-04-24T13:32:32;10.50;70.70
20057;DHT22;10189;49.546;7.906;2023-04-24T13:34:59;10.50;71.00
20057;DHT22;10189;49.546;7.906;2023-04-24T13:37:25;10.40;72.40
20057;DHT22;10189;49.546;7.906;2023-04-24T13:39:51;10.50;73.20
20057;DHT22;10189;49.546;7.906;2023-04-24T13:42:17;11.00;71.70
20057;DHT22;10189;49.546;7.906;2023-04-24T13:44:43;11.50;72.80
20057;DHT22;10189;49.546;7.906;2023-04-24T13:47:09;11.60;68.90
20057;DHT22;10189;49.546;7.906;2023-04-24T13:49:35;11.70;69.50
20057;DHT22;10189;49.546;7.906;2023-04-24T13:52:01;12.00;67.00
20057;DHT22;10189;49.546;7.906;2023-04-24T13:54:28;12.10;67.20
20057;DHT22;10189;49.546;7.906;2023-04-24T13:56:57;12.00;67.70
20057;DHT22;10189;49.546;7.906;2023-04-24T13:59:23;12.10;68.80
20057;DHT22;10189;49.546;7.906;2023-04-24T14:01:49;12.00;67.60
20057;DHT22;10189;49.546;7.906;2023-04-24T14:04:15;12.00;68.10
20057;DHT22;10189;49.546;7.906;2023-04-24T14:06:41;12.10;66.50
20057;DHT22;10189;49.546;7.906;2023-04-24T14:09:07;11.70;65.60
20057;DHT22;10189;49.546;7.906;2023-04-24T14:11:34;11.40;66.60
20057;DHT22;10189;49.546;7.906;2023-04-24T14:14:00;11.40;69.30
20057;DHT22;10189;49.546;7.906;2023-04-24T14:16:26;11.40;71.50
20057;DHT22;10189;49.546;7.906;2023-04-24T14:18:52;11.40;72.80
20057;DHT22;10189;49.546;7.906;2023-04-24T14:21:18;11.20;72.70
20057;DHT22;10189;49.546;7.906;2023-04-24T14:23:44;11.20;73.10
20057;DHT22;10189;49.546;7.906;2023-04-24T14:26:10;11.30;72.30
20057;DHT22;10189;49.546;7.906;2023-04-24T14:28:37;11.40;71.00
20057;DHT22;10189;49.546;7.906;2023-04-24T14:31:02;11.40;72.10
20057;DHT22;10189;49.546;7.906;2023-04-24T14:33:28;11.30;72.10
20057;DHT22;10189;49.546;7.906;2023-04-24T14:35:55;11.30;72.00
20057;DHT22;10189;49.546;7.906;2023-04-24T14:38:22;11.30;71.30
20057;DHT22;10189;49.546;7.906;2023-04-24T14:40:48;11.60;72.40
20057;DHT22;10189;49.546;7.906;2023-04-24T14:43:14;12.00;70.90
20057;DHT22;10189;49.546;7.906;2023-04-24T14:45:40;12.40;73.20
20057;DHT22;10189;49.546;7.906;2023-04-24T14:48:07;12.60;67.80
20057;DHT22;10189;49.546;7.906;2023-04-24T14:50:34;12.40;66.80
20057;DHT22;10189;49.546;7.906;2023-04-24T14:53:00;12.40;66.10
20057;DHT22;10189;49.546;7.906;2023-04-24T14:55:28;12.10;65.50
20057;DHT22;10189;49.546;7.906;2023-04-24T14:57:54;12.00;66.60
20057;DHT22;10189;49.546;7.906;2023-04-24T15:00:21;11.80;68.70
20057;DHT22;10189;49.546;7.906;2023-04-24T15:02:49;12.00;69.10
20057;DHT22;10189;49.546;7.906;2023-04-24T15:05:15;12.20;68.10
20057;DHT22;10189;49.546;7.906;2023-04-24T15:07:41;12.00;68.80
20057;DHT22;10189;49.546;7.906;2023-04-24T15:10:08;11.80;69.60
20057;DHT22;10189;49.546;7.906;2023-04-24T15:12:35;11.60;69.20
20057;DHT22;10189;49.546;7.906;2023-04-24T15:15:01;11.40;71.20
20057;DHT22;10189;49.546;7.906;2023-04-24T15:17:27;11.30;71.80
20057;DHT22;10189;49.546;7.906;2023-04-24T15:19:53;11.00;72.60
20057;DHT22;10189;49.546;7.906;2023-04-24T15:22:19;11.00;73.10
20057;DHT22;10189;49.546;7.906;2023-04-24T15:24:45;10.90;72.40
20057;DHT22;10189;49.546;7.906;2023-04-24T15:27:11;10.70;73.00
20057;DHT22;10189;49.546;7.906;2023-04-24T15:29:37;10.40;73.40
20057;DHT22;10189;49.546;7.906;2023-04-24T15:32:04;10.20;74.90
20057;DHT22;10189;49.546;7.906;2023-04-24T15:34:30;10.00;74.30
20057;DHT22;10189;49.546;7.906;2023-04-24T15:36:58;9.90;76.90
20057;DHT22;10189;49.546;7.906;2023-04-24T15:39:24;9.90;77.80
20057;DHT22;10189;49.546;7.906;2023-04-24T15:41:50;10.10;76.90
20057;DHT22;10189;49.546;7.906;2023-04-24T15:44:16;10.30;77.30
20057;DHT22;10189;49.546;7.906;2023-04-24T15:46:42;10.60;76.50
20057;DHT22;10189;49.546;7.906;2023-04-24T15:49:08;10.90;74.20
20057;DHT22;10189;49.546;7.906;2023-04-24T15:51:34;11.00;73.10
20057;DHT22;10189;49.546;7.906;2023-04-24T15:54:00;11.20;72.60
20057;DHT22;10189;49.546;7.906;2023-04-24T15:56:26;11.50;72.10